Time;durP1;ratioP1;P1;durP2;ratioP2;P2;SDS_P1;SDS_P2;PMS_P1;PMS_P2;Temp;Humidity;BMP_temperature;BMP_pressure;BME280_temperature;BME280_humidity;BME280_pressure;Samples;Min_cycle;Max_cycle;Signal;HPM_P1;HPM_P2
2023/10/29 00:01:58;;;;;;;;;;;;;;;22.12;54.96;100646.59;7397632;19;1801;-38
2023/10/29 00:04:32;;;;;;;;;;;;;;;22.14;54.79;100641.88;7396749;19;1860;-38
2023/10/29 00:07:00;;;;;;;;;;;;;;;22.12;54.93;100654.66;7396094;19;1780;-38
2023/10/29 00:09:31;;;;;;;;;;;;;;;22.10;54.89;100648.59;7392594;19;1858;-38
2023/10/29 00:12:00;;;;;;;;;;;;;;;22.12;55.02;100651.97;7397067;19;1829;-39
2023/10/29 00:14:28;;;;;;;;;;;;;;;22.14;55.03;100663.44;7398322;19;934;-38
2023/10/29 00:16:57;;;;;;;;;;;;;;;22.09;54.87;100664.94;7395140;19;1507;-38
2023/10/29 00:19:25;;;;;;;;;;;;;;;22.11;54.93;100661.06;7397526;19;1717;-38
2023/10/29 00:21:53;;;;;;;;;;;;;;;22.14;54.73;100660.75;7396988;19;1457;-38
2023/10/29 00:24:22;;;;;;;;;;;;;;;22.09;54.81;100659.56;7397269;19;1682;-38
2023/10/29 00:26:53;;;;;;;;;;;;;;;22.14;54.64;100662.59;7397175;19;1737;-38
2023/10/29 00:29:21;;;;;;;;;;;;;;;22.12;54.86;100670.00;7396637;19;2018;-38
2023/10/29 00:31:50;;;;;;;;;;;;;;;22.10;54.77;100670.16;7397779;19;1769;-38
2023/10/29 00:34:18;;;;;;;;;;;;;;;22.06;55.17;100666.06;7396394;19;1816;-38
2023/10/29 00:36:47;;;;;;;;;;;;;;;22.10;54.89;100662.06;7396100;19;1984;-38
2023/10/29 00:39:15;;;;;;;;;;;;;;;22.11;54.79;100663.78;7396932;19;1772;-38
2023/10/29 00:41:44;;;;;;;;;;;;;;;22.08;55.03;100672.16;7397773;19;1825;-38
2023/10/29 00:44:15;;;;;;;;;;;;;;;22.06;55.04;100687.63;7398314;19;1898;-38
2023/10/29 00:46:43;;;;;;;;;;;;;;;22.09;54.81;100681.09;7396290;19;1849;-38
2023/10/29 00:49:12;;;;;;;;;;;;;;;22.02;54.82;100670.09;7395564;19;1836;-38
2023/10/29 00:51:40;;;;;;;;;;;;;;;22.01;54.96;100676.50;7396464;19;1386;-38
2023/10/29 00:54:09;;;;;;;;;;;;;;;22.07;54.92;100673.16;7395893;19;1480;-39
2023/10/29 00:56:37;;;;;;;;;;;;;;;22.04;54.95;100678.84;7396283;19;1682;-39
2023/10/29 00:59:06;;;;;;;;;;;;;;;22.06;55.07;100687.63;7395649;19;1848;-38
2023/10/29 01:01:37;;;;;;;;;;;;;;;22.01;55.09;100679.19;7395964;19;1790;-39
2023/10/29 01:04:06;;;;;;;;;;;;;;;22.02;55.02;100675.47;7395241;19;1944;-38
2023/10/29 01:06:38;;;;;;;;;;;;;;;22.02;55.05;100684.44;7395220;19;1694;-38
2023/10/29 01:09:07;;;;;;;;;;;;;;;22.05;54.90;100683.25;7394994;19;1828;-38
2023/10/29 01:11:35;;;;;;;;;;;;;;;22.07;54.96;100683.09;7397141;19;1017;-38
2023/10/29 01:14:03;;;;;;;;;;;;;;;21.99;55.07;100686.59;7395145;19;1251;-38
2023/10/29 01:16:32;;;;;;;;;;;;;;;21.97;54.96;100680.50;7395000;19;1397;-38
2023/10/29 01:19:03;;;;;;;;;;;;;;;22.02;54.86;100691.63;7394609;19;1412;-39
2023/10/29 01:21:31;;;;;;;;;;;;;;;21.97;54.85;100678.66;7394437;19;1439;-39
2023/10/29 01:24:00;;;;;;;;;;;;;;;21.98;54.87;100688.41;7395875;19;1615;-39
2023/10/29 01:26:28;;;;;;;;;;;;;;;22.01;55.07;100682.72;7395069;19;1407;-39
2023/10/29 01:28:57;;;;;;;;;;;;;;;21.98;54.78;100692.94;7395489;19;1907;-38
2023/10/29 01:31:25;;;;;;;;;;;;;;;22.00;54.76;100696.34;7395140;19;1570;-39
2023/10/29 01:33:54;;;;;;;;;;;;;;;22.00;55.03;100685.56;7394807;19;1767;-39
2023/10/29 01:36:25;;;;;;;;;;;;;;;22.02;54.95;100691.63;7393688;19;1695;-38
2023/10/29 01:38:53;;;;;;;;;;;;;;;21.96;55.01;100686.88;7395050;19;1442;-39
2023/10/29 01:41:21;;;;;;;;;;;;;;;22.00;54.79;100699.91;7394076;19;990;-39
2023/10/29 01:43:50;;;;;;;;;;;;;;;21.96;54.98;100697.66;7394543;19;1854;-39
2023/10/29 01:46:18;;;;;;;;;;;;;;;21.98;54.85;100707.25;7393991;19;1800;-39
2023/10/29 01:48:46;;;;;;;;;;;;;;;21.98;54.83;100706.41;7393892;19;1568;-39
2023/10/29 01:51:14;;;;;;;;;;;;;;;22.01;54.72;100716.88;7393243;19;1869;-39
2023/10/29 01:53:46;;;;;;;;;;;;;;;22.02;54.85;100718.56;7394919;19;1405;-38
2023/10/29 01:56:14;;;;;;;;;;;;;;;22.00;54.69;100701.72;7393017;19;1414;-38
2023/10/29 01:58:42;;;;;;;;;;;;;;;22.00;54.73;100712.50;7393592;19;1539;-38
2023/10/29 02:01:11;;;;;;;;;;;;;;;21.98;54.60;100725.25;7394890;19;1228;-39
2023/10/29 02:03:40;;;;;;;;;;;;;;;21.97;54.64;100739.75;7393916;19;1895;-38
2023/10/29 02:06:16;;;;;;;;;;;;;;;21.98;54.64;100733.34;7392101;19;1491;-39
2023/10/29 02:08:48;;;;;;;;;;;;;;;21.96;54.62;100732.66;7391353;19;1560;-38
2023/10/29 02:11:16;;;;;;;;;;;;;;;21.99;54.70;100746.66;7390881;19;1841;-38
2023/10/29 02:13:44;;;;;;;;;;;;;;;21.97;54.69;100731.66;7390972;19;1415;-39
2023/10/29 02:16:12;;;;;;;;;;;;;;;21.94;54.65;100737.34;7392057;19;1440;-38
2023/10/29 02:18:41;;;;;;;;;;;;;;;21.95;54.60;100734.50;7393201;19;1444;-38
2023/10/29 02:21:09;;;;;;;;;;;;;;;21.95;54.73;100739.88;7392986;19;1217;-38
2023/10/29 02:23:40;;;;;;;;;;;;;;;21.94;54.56;100740.88;7392501;19;1994;-39
2023/10/29 02:26:08;;;;;;;;;;;;;;;21.96;54.64;100740.72;7393300;19;1864;-38
2023/10/29 02:28:37;;;;;;;;;;;;;;;21.99;54.61;100743.97;7392622;19;1550;-38
2023/10/29 02:31:05;;;;;;;;;;;;;;;21.93;54.61;100752.66;7392873;19;1859;-38
2023/10/29 02:33:33;;;;;;;;;;;;;;;21.92;54.52;100747.44;7397896;19;1745;-38
2023/10/29 02:36:02;;;;;;;;;;;;;;;21.93;54.72;100736.50;7401604;19;1821;-39
2023/10/29 02:38:30;;;;;;;;;;;;;;;21.95;54.59;100756.03;7401250;19;1531;-39
2023/10/29 02:41:01;;;;;;;;;;;;;;;21.95;54.49;100747.13;7401489;19;1610;-39
2023/10/29 02:43:29;;;;;;;;;;;;;;;21.96;54.44;100752.34;7401309;19;1512;-38
2023/10/29 02:45:57;;;;;;;;;;;;;;;21.90;54.77;100752.97;7399856;19;1542;-39
2023/10/29 02:48:26;;;;;;;;;;;;;;;21.90;54.62;100754.81;7400706;19;1913;-39
2023/10/29 02:50:54;;;;;;;;;;;;;;;21.91;54.49;100753.81;7397910;19;1861;-39
2023/10/29 02:53:23;;;;;;;;;;;;;;;21.89;54.69;100755.84;7399536;19;1547;-38
2023/10/29 02:55:52;;;;;;;;;;;;;;;21.90;54.60;100758.34;7399796;19;1558;-39
2023/10/29 02:58:22;;;;;;;;;;;;;;;21.95;54.59;100772.19;7399279;19;1480;-38
2023/10/29 03:00:51;;;;;;;;;;;;;;;21.93;54.41;100763.44;7398824;19;1503;-38
2023/10/29 03:03:19;;;;;;;;;;;;;;;21.93;54.65;100774.19;7398942;19;1538;-39
2023/10/29 03:05:47;;;;;;;;;;;;;;;21.90;54.48;100773.66;7400239;19;1487;-38
2023/10/29 03:08:16;;;;;;;;;;;;;;;21.88;54.80;100772.97;7400018;19;1484;-38
2023/10/29 03:10:44;;;;;;;;;;;;;;;21.88;54.57;100768.41;7398114;19;1849;-40
2023/10/29 03:13:12;;;;;;;;;;;;;;;21.95;54.64;100772.19;7399663;19;1492;-38
2023/10/29 03:15:43;;;;;;;;;;;;;;;21.88;54.59;100786.44;7400090;19;2079;-39
2023/10/29 03:18:13;;;;;;;;;;;;;;;21.85;54.57;100777.66;7398889;19;1420;-39
2023/10/29 03:20:41;;;;;;;;;;;;;;;21.90;54.47;100790.66;7399125;19;1526;-38
2023/10/29 03:23:09;;;;;;;;;;;;;;;21.91;54.59;100786.97;7398714;19;1413;-39
2023/10/29 03:25:38;;;;;;;;;;;;;;;21.85;54.67;100793.81;7398159;19;1452;-38
2023/10/29 03:28:06;;;;;;;;;;;;;;;21.85;54.76;100777.66;7397495;19;1427;-38
2023/10/29 03:30:35;;;;;;;;;;;;;;;21.88;54.47;100791.81;7396787;19;1848;-39
2023/10/29 03:33:05;;;;;;;;;;;;;;;21.89;54.56;100788.97;7398208;19;1605;-38
2023/10/29 03:35:34;;;;;;;;;;;;;;;21.89;54.41;100794.38;7397707;19;1476;-38
2023/10/29 03:38:02;;;;;;;;;;;;;;;21.85;54.49;100791.13;7398683;19;1554;-38
2023/10/29 03:40:30;;;;;;;;;;;;;;;21.85;54.61;100795.66;7399598;19;1373;-39
2023/10/29 03:42:59;;;;;;;;;;;;;;;21.89;54.69;100802.44;7397909;19;1487;-39
2023/10/29 03:45:27;;;;;;;;;;;;;;;21.85;54.63;100811.81;7398193;19;1964;-38
2023/10/29 03:47:55;;;;;;;;;;;;;;;21.87;54.47;100812.50;7397627;19;1433;-38
2023/10/29 03:50:27;;;;;;;;;;;;;;;21.86;54.51;100821.56;7396893;19;1833;-38
2023/10/29 03:52:55;;;;;;;;;;;;;;;21.92;54.53;100823.66;7397189;19;1500;-38
2023/10/29 03:55:23;;;;;;;;;;;;;;;21.92;54.33;100828.19;7396548;19;1526;-39
2023/10/29 03:57:51;;;;;;;;;;;;;;;21.85;54.42;100836.06;7396383;19;1508;-39
2023/10/29 04:00:20;;;;;;;;;;;;;;;21.89;54.29;100825.84;7398127;19;1541;-38
2023/10/29 04:02:48;;;;;;;;;;;;;;;21.87;54.44;100830.53;7396857;19;1568;-38
2023/10/29 04:05:17;;;;;;;;;;;;;;;21.82;54.60;100831.78;7396803;19;1479;-39
2023/10/29 04:07:48;;;;;;;;;;;;;;;21.84;54.51;100837.91;7396041;19;1448;-38
2023/10/29 04:10:16;;;;;;;;;;;;;;;21.84;54.53;100839.72;7396530;19;1865;-38
2023/10/29 04:12:45;;;;;;;;;;;;;;;21.82;54.54;100847.09;7395686;19;1563;-38
2023/10/29 04:15:13;;;;;;;;;;;;;;;21.81;54.28;100835.50;7397091;19;1181;-38
2023/10/29 04:17:41;;;;;;;;;;;;;;;21.83;54.44;100849.66;7396421;19;1612;-38
2023/10/29 04:20:10;;;;;;;;;;;;;;;21.83;54.44;100848.81;7395903;19;1570;-38
2023/10/29 04:22:39;;;;;;;;;;;;;;;21.83;54.33;100838.88;7396670;19;1647;-38
2023/10/29 04:25:10;;;;;;;;;;;;;;;21.42;54.18;100770.28;7396968;19;1611;-38
2023/10/29 04:27:38;;;;;;;;;;;;;;;21.79;54.35;100837.50;7396677;19;1487;-38
2023/10/29 04:30:08;;;;;;;;;;;;;;;21.85;54.22;100853.03;7395565;19;1838;-39
2023/10/29 04:32:36;;;;;;;;;;;;;;;21.81;54.38;100846.28;7395845;19;1457;-38
2023/10/29 04:35:04;;;;;;;;;;;;;;;21.81;54.36;100872.34;7396580;19;1813;-38
2023/10/29 04:37:33;;;;;;;;;;;;;;;21.80;54.41;100870.66;7395992;19;1532;-38
2023/10/29 04:40:02;;;;;;;;;;;;;;;21.84;54.31;100875.59;7395141;19;1221;-38
2023/10/29 04:42:33;;;;;;;;;;;;;;;21.85;54.20;100879.13;7395194;19;1569;-38
2023/10/29 04:45:01;;;;;;;;;;;;;;;21.87;54.39;100887.06;7396339;19;1371;-39
2023/10/29 04:47:29;;;;;;;;;;;;;;;21.78;54.28;100881.56;7390495;19;1576;-39
2023/10/29 04:49:57;;;;;;;;;;;;;;;21.77;54.28;100892.50;7395596;19;1455;-38
2023/10/29 04:52:26;;;;;;;;;;;;;;;21.83;54.31;100887.34;7395994;19;1557;-38
2023/10/29 04:54:54;;;;;;;;;;;;;;;21.81;54.41;100889.34;7396057;19;1781;-39
2023/10/29 04:57:23;;;;;;;;;;;;;;;21.84;54.03;100894.44;7394944;19;1892;-40
2023/10/29 04:59:54;;;;;;;;;;;;;;;21.80;54.16;100894.88;7395129;19;1940;-39
2023/10/29 05:02:22;;;;;;;;;;;;;;;21.79;54.26;100901.28;7395747;19;1417;-39
2023/10/29 05:04:51;;;;;;;;;;;;;;;21.82;54.03;100895.56;7394657;19;1445;-38
2023/10/29 05:07:19;;;;;;;;;;;;;;;21.79;54.09;100894.03;7395698;19;1756;-38
2023/10/29 05:09:48;;;;;;;;;;;;;;;21.80;54.30;100906.47;7395328;19;1924;-39
2023/10/29 05:12:16;;;;;;;;;;;;;;;21.88;54.09;100923.72;7391968;19;1849;-38
2023/10/29 05:14:46;;;;;;;;;;;;;;;21.88;53.90;100926.44;7395499;19;1745;-38
2023/10/29 05:17:17;;;;;;;;;;;;;;;21.95;54.02;100912.22;7395473;19;1753;-38
2023/10/29 05:19:46;;;;;;;;;;;;;;;21.97;53.89;100915.59;7395823;19;1770;-39
2023/10/29 05:22:14;;;;;;;;;;;;;;;21.99;53.85;100919.00;7395200;19;1827;-38
2023/10/29 05:24:42;;;;;;;;;;;;;;;22.01;53.54;100924.22;7394959;19;1418;-38
2023/10/29 05:27:11;;;;;;;;;;;;;;;22.08;53.46;100914.53;7393519;19;1500;-38
2023/10/29 05:29:39;;;;;;;;;;;;;;;22.14;53.48;100913.06;7395804;19;1429;-39
2023/10/29 05:32:08;;;;;;;;;;;;;;;22.14;53.36;100922.00;7393451;19;1832;-38
2023/10/29 05:34:39;;;;;;;;;;;;;;;22.18;53.31;100917.16;7395678;19;1325;-38
2023/10/29 05:37:07;;;;;;;;;;;;;;;22.21;53.33;100923.09;7395654;19;1666;-38
2023/10/29 05:39:36;;;;;;;;;;;;;;;22.28;53.32;100935.97;7394316;19;1809;-38
2023/10/29 05:42:05;;;;;;;;;;;;;;;22.37;52.90;100937.75;7391833;19;1619;-39
2023/10/29 05:44:34;;;;;;;;;;;;;;;22.35;53.07;100929.00;7395381;19;1543;-38
2023/10/29 05:47:02;;;;;;;;;;;;;;;22.34;53.12;100936.22;7394503;19;1476;-38
2023/10/29 05:49:31;;;;;;;;;;;;;;;22.38;52.97;100955.59;7393187;19;1416;-38
2023/10/29 05:52:02;;;;;;;;;;;;;;;22.39;53.01;100930.38;7391386;19;1847;-38
2023/10/29 05:54:30;;;;;;;;;;;;;;;22.39;52.78;100955.47;7394187;19;1765;-39
2023/10/29 05:56:58;;;;;;;;;;;;;;;22.44;52.68;100949.59;7394385;19;1519;-39
2023/10/29 05:59:28;;;;;;;;;;;;;;;22.48;52.64;100931.28;7394941;19;1470;-39
2023/10/29 06:01:56;;;;;;;;;;;;;;;22.50;52.61;100949.00;7394618;19;1764;-38
2023/10/29 06:04:24;;;;;;;;;;;;;;;22.57;52.33;100955.47;7393266;19;1928;-38
2023/10/29 06:06:53;;;;;;;;;;;;;;;22.62;52.70;100957.69;7393026;19;1852;-38
2023/10/29 06:09:24;;;;;;;;;;;;;;;22.60;52.30;100965.94;7400688;19;1691;-38
2023/10/29 06:11:52;;;;;;;;;;;;;;;22.60;52.49;100965.94;7399950;19;1865;-39
2023/10/29 06:14:22;;;;;;;;;;;;;;;22.54;52.63;100958.47;7402007;19;1039;-38
2023/10/29 06:16:55;;;;;;;;;;;;;;;22.31;53.44;100982.31;7398942;19;1406;-38
2023/10/29 06:19:24;;;;;;;;;;;;;;;22.18;53.47;100966.50;7400257;19;1417;-39
2023/10/29 06:21:52;;;;;;;;;;;;;;;22.14;53.79;100986.63;7401399;19;1547;-38
2023/10/29 06:24:23;;;;;;;;;;;;;;;22.16;53.60;100978.41;7400820;19;1770;-38
2023/10/29 06:26:53;;;;;;;;;;;;;;;22.18;53.64;101001.53;7400885;19;1920;-38
2023/10/29 06:29:21;;;;;;;;;;;;;;;22.18;53.72;100995.28;7399744;19;2027;-38
2023/10/29 06:31:49;;;;;;;;;;;;;;;22.17;53.60;101002.50;7399913;19;1837;-39
2023/10/29 06:34:18;;;;;;;;;;;;;;;22.16;53.69;100994.56;7401278;19;1804;-39
2023/10/29 06:36:46;;;;;;;;;;;;;;;22.11;53.87;100992.34;7399552;19;1753;-38
2023/10/29 06:39:15;;;;;;;;;;;;;;;22.12;53.98;100994.03;7400148;19;1904;-38
2023/10/29 06:41:46;;;;;;;;;;;;;;;22.11;53.96;101003.13;7401101;19;1547;-38
2023/10/29 06:44:14;;;;;;;;;;;;;;;22.10;53.94;101001.41;7400986;19;1722;-39
2023/10/29 06:46:43;;;;;;;;;;;;;;;22.10;54.00;101014.03;7400163;19;1541;-38
2023/10/29 06:49:11;;;;;;;;;;;;;;;22.07;54.18;101012.50;7399392;19;1546;-39
2023/10/29 06:51:39;;;;;;;;;;;;;;;22.05;54.09;101011.78;7399885;19;1849;-39
2023/10/29 06:54:08;;;;;;;;;;;;;;;22.05;54.09;101009.94;7399791;19;1519;-39
2023/10/29 06:56:36;;;;;;;;;;;;;;;22.04;54.36;101019.03;7399663;19;1729;-39
2023/10/29 06:59:07;;;;;;;;;;;;;;;22.04;54.24;101012.78;7401005;19;1920;-39
2023/10/29 07:01:35;;;;;;;;;;;;;;;22.05;54.16;101025.25;7399018;19;2177;-39
2023/10/29 07:04:04;;;;;;;;;;;;;;;22.04;54.17;101018.16;7397075;19;1759;-39
2023/10/29 07:06:32;;;;;;;;;;;;;;;22.04;54.12;101019.03;7399577;19;1792;-39
2023/10/29 07:09:00;;;;;;;;;;;;;;;22.08;54.14;101024.94;7396535;19;1913;-39
2023/10/29 07:11:30;;;;;;;;;;;;;;;22.12;54.04;101025.50;7399821;19;1851;-39
2023/10/29 07:13:58;;;;;;;;;;;;;;;22.09;54.19;101040.13;7399344;19;1916;-38
2023/10/29 07:16:29;;;;;;;;;;;;;;;22.14;53.82;101043.19;7399144;19;1840;-39
2023/10/29 07:18:57;;;;;;;;;;;;;;;22.17;53.88;101032.13;7398521;19;1750;-39
2023/10/29 07:21:26;;;;;;;;;;;;;;;22.19;53.68;101032.00;7398920;19;1829;-39
2023/10/29 07:23:54;;;;;;;;;;;;;;;22.21;54.05;101030.84;7399927;19;1470;-38
2023/10/29 07:26:23;;;;;;;;;;;;;;;22.22;53.99;101037.06;7397921;19;1867;-39
2023/10/29 07:28:51;;;;;;;;;;;;;;;22.22;53.89;101039.75;7400249;19;1620;-39
2023/10/29 07:31:19;;;;;;;;;;;;;;;22.24;53.80;101041.34;7397913;19;1861;-39
2023/10/29 07:33:51;;;;;;;;;;;;;;;22.26;53.90;101034.97;7398209;19;1539;-39
2023/10/29 07:36:20;;;;;;;;;;;;;;;22.23;53.72;101060.31;7398152;19;1524;-39
2023/10/29 07:38:49;;;;;;;;;;;;;;;22.26;53.96;101033.09;7398334;19;1424;-39
2023/10/29 07:41:20;;;;;;;;;;;;;;;22.25;53.70;101036.81;7398261;19;1183;-39
2023/10/29 07:43:48;;;;;;;;;;;;;;;22.25;54.32;101026.03;7396971;19;1557;-39
2023/10/29 07:46:16;;;;;;;;;;;;;;;22.27;53.88;101033.97;7397373;19;1524;-39
2023/10/29 07:48:45;;;;;;;;;;;;;;;22.28;53.93;101041.03;7397530;19;1504;-39
2023/10/29 07:51:16;;;;;;;;;;;;;;;22.30;53.85;101039.03;7397922;19;1849;-38
2023/10/29 07:53:44;;;;;;;;;;;;;;;22.32;53.68;101032.53;7398239;19;1927;-38
2023/10/29 07:56:13;;;;;;;;;;;;;;;22.34;53.68;101029.66;7397405;19;1879;-39
2023/10/29 07:58:42;;;;;;;;;;;;;;;22.39;53.77;101035.47;7398299;19;1841;-39
2023/10/29 08:01:14;;;;;;;;;;;;;;;22.43;53.51;101042.22;7397210;19;1840;-39
2023/10/29 08:03:42;;;;;;;;;;;;;;;22.42;53.61;101036.00;7396938;19;1698;-38
2023/10/29 08:06:10;;;;;;;;;;;;;;;22.45;53.67;101026.75;7398200;19;1810;-39
2023/10/29 08:08:41;;;;;;;;;;;;;;;22.47;53.41;101027.47;7398107;19;1857;-39
2023/10/29 08:11:19;;;;;;;;;;;;;;;22.51;53.39;101026.16;7399216;19;1829;-38
2023/10/29 08:13:47;;;;;;;;;;;;;;;22.52;53.23;101021.59;7397053;19;1813;-39
2023/10/29 08:16:15;;;;;;;;;;;;;;;22.59;53.19;101028.09;7397365;19;1540;-39
2023/10/29 08:18:44;;;;;;;;;;;;;;;22.61;53.26;101018.00;7397026;19;1516;-39
2023/10/29 08:21:12;;;;;;;;;;;;;;;22.61;53.02;101024.22;7394249;19;1408;-39
2023/10/29 08:23:43;;;;;;;;;;;;;;;22.67;53.14;101017.38;7396912;19;1513;-39
2023/10/29 08:26:11;;;;;;;;;;;;;;;22.70;52.88;101030.56;7396280;19;1836;-39
2023/10/29 08:28:39;;;;;;;;;;;;;;;22.71;52.91;101031.41;7395396;19;1893;-39
2023/10/29 08:31:08;;;;;;;;;;;;;;;22.75;52.71;101035.50;7394720;19;1728;-39
2023/10/29 08:33:37;;;;;;;;;;;;;;;22.78;52.87;101027.94;7393615;19;1855;-38
2023/10/29 08:36:05;;;;;;;;;;;;;;;22.74;53.06;101021.16;7396686;19;1578;-39
2023/10/29 08:38:34;;;;;;;;;;;;;;;22.81;52.83;101026.78;7396385;19;1924;-39
2023/10/29 08:41:14;;;;;;;;;;;;;;;22.83;52.86;101035.56;7396737;19;1372;-39
2023/10/29 08:43:42;;;;;;;;;;;;;;;22.83;52.76;101020.22;7397745;19;1710;-39
2023/10/29 08:46:11;;;;;;;;;;;;;;;22.79;52.83;101018.84;7397258;19;1741;-39
2023/10/29 08:48:39;;;;;;;;;;;;;;;22.81;52.94;101027.63;7397781;19;1762;-39
2023/10/29 08:51:07;;;;;;;;;;;;;;;22.84;52.75;101023.78;7396825;19;1749;-39
2023/10/29 08:53:36;;;;;;;;;;;;;;;22.86;52.94;101029.88;7394558;19;1914;-39
2023/10/29 08:56:08;;;;;;;;;;;;;;;22.86;52.87;101026.31;7397258;19;1797;-39
2023/10/29 08:58:37;;;;;;;;;;;;;;;22.87;52.73;101031.56;7396378;19;1669;-39
2023/10/29 09:01:11;;;;;;;;;;;;;;;22.84;53.00;101026.47;7397158;19;1710;-39
2023/10/29 09:03:39;;;;;;;;;;;;;;;22.87;53.05;101033.41;7396835;19;1392;-39
2023/10/29 09:06:08;;;;;;;;;;;;;;;22.87;52.78;101031.56;7396022;19;1738;-39
2023/10/29 09:08:37;;;;;;;;;;;;;;;22.84;52.84;101021.09;7395803;19;1824;-39
2023/10/29 09:11:08;;;;;;;;;;;;;;;22.83;53.07;101031.00;7397189;19;988;-39
2023/10/29 09:13:36;;;;;;;;;;;;;;;22.86;52.79;101034.41;7393614;19;2050;-39
2023/10/29 09:16:05;;;;;;;;;;;;;;;22.87;52.74;101012.69;7395754;19;1429;-39
2023/10/29 09:18:33;;;;;;;;;;;;;;;22.91;52.65;101010.53;7396728;19;1340;-39
2023/10/29 09:21:01;;;;;;;;;;;;;;;22.89;52.93;101021.47;7396132;19;1726;-39
2023/10/29 09:23:30;;;;;;;;;;;;;;;22.85;52.85;101030.88;7395003;19;1902;-39
2023/10/29 09:25:59;;;;;;;;;;;;;;;22.86;52.82;101013.69;7396140;19;1932;-39
2023/10/29 09:28:30;;;;;;;;;;;;;;;23.00;52.62;101023.09;7395338;19;1658;-39
2023/10/29 09:31:03;;;;;;;;;;;;;;;23.00;52.64;101026.63;7393241;19;1758;-39
2023/10/29 09:33:31;;;;;;;;;;;;;;;23.00;52.64;101041.97;7393055;19;1843;-39
2023/10/29 09:36:00;;;;;;;;;;;;;;;23.07;52.25;101026.88;7394466;19;1809;-39
2023/10/29 09:38:28;;;;;;;;;;;;;;;23.06;52.59;101024.31;7393741;19;1745;-39
2023/10/29 09:40:56;;;;;;;;;;;;;;;23.09;52.44;101019.47;7395435;19;1018;-39
2023/10/29 09:43:28;;;;;;;;;;;;;;;23.10;52.35;101031.97;7393321;19;1939;-39
2023/10/29 09:46:00;;;;;;;;;;;;;;;23.00;52.35;101026.63;7394726;19;1726;-39
2023/10/29 09:48:28;;;;;;;;;;;;;;;23.07;52.53;101042.22;7395213;19;1651;-39
2023/10/29 09:50:57;;;;;;;;;;;;;;;23.01;52.43;101035.56;7393592;19;1421;-38
2023/10/29 09:53:26;;;;;;;;;;;;;;;23.02;52.65;101030.03;7392818;19;1923;-39
2023/10/29 09:55:56;;;;;;;;;;;;;;;22.98;52.60;101034.03;7393165;19;1738;-39
2023/10/29 09:58:26;;;;;;;;;;;;;;;23.00;52.45;101032.00;7394249;19;1729;-39
2023/10/29 10:00:54;;;;;;;;;;;;;;;22.99;52.72;101041.09;7394663;19;1734;-39
2023/10/29 10:03:27;;;;;;;;;;;;;;;23.00;52.52;101039.28;7394172;19;1843;-39
2023/10/29 10:05:55;;;;;;;;;;;;;;;22.98;52.66;101042.13;7394683;19;1742;-39
2023/10/29 10:08:27;;;;;;;;;;;;;;;22.94;53.00;101053.34;7394771;19;1816;-39
2023/10/29 10:10:55;;;;;;;;;;;;;;;22.94;52.77;101032.63;7395840;19;1219;-39
2023/10/29 10:13:37;;;;;;;;;;;;;;;22.93;53.04;101030.94;7391722;19;1946;-39
2023/10/29 10:16:10;;;;;;;;;;;;;;;22.88;53.07;101030.56;7394094;19;1754;-39
2023/10/29 10:18:54;;;;;;;;;;;;;;;22.84;53.27;101038.13;7395580;19;1766;-39
2023/10/29 10:21:23;;;;;;;;;;;;;;;22.79;53.23;101023.41;7395494;19;1368;-39
2023/10/29 10:23:52;;;;;;;;;;;;;;;22.77;53.54;101020.00;7394057;19;1942;-39
2023/10/29 10:26:30;;;;;;;;;;;;;;;22.82;53.35;101025.78;7393865;19;1855;-39
2023/10/29 10:28:59;;;;;;;;;;;;;;;22.80;53.30;101025.06;7394836;19;1828;-39
2023/10/29 10:31:29;;;;;;;;;;;;;;;22.92;52.89;101009.50;7393456;19;1845;-39
2023/10/29 10:34:16;;;;;;;;;;;;;;;22.99;52.90;100987.16;7392687;19;1904;-39
2023/10/29 10:36:45;;;;;;;;;;;;;;;23.02;52.58;100997.69;7394442;19;1732;-39
2023/10/29 10:39:14;;;;;;;;;;;;;;;23.04;52.61;101005.63;7394816;19;1690;-39
2023/10/29 10:41:45;;;;;;;;;;;;;;;23.01;52.72;100989.69;7394108;19;1788;-39
2023/10/29 10:44:13;;;;;;;;;;;;;;;23.05;52.73;100980.31;7394523;19;1675;-39
2023/10/29 10:46:44;;;;;;;;;;;;;;;23.10;52.49;101001.41;7394983;19;1837;-39
2023/10/29 10:49:15;;;;;;;;;;;;;;;23.06;52.72;100981.16;7393813;19;1931;-39
2023/10/29 10:51:44;;;;;;;;;;;;;;;23.08;52.78;100990.81;7393396;19;1853;-39
2023/10/29 10:54:13;;;;;;;;;;;;;;;23.04;52.81;100984.03;7393733;19;1878;-39
2023/10/29 10:56:41;;;;;;;;;;;;;;;23.03;52.67;100983.16;7398307;19;1855;-39
2023/10/29 10:59:10;;;;;;;;;;;;;;;23.07;52.66;100993.66;7400408;19;1737;-39
2023/10/29 11:01:39;;;;;;;;;;;;;;;23.09;52.58;100988.94;7399809;19;1812;-39
2023/10/29 11:04:09;;;;;;;;;;;;;;;23.03;52.89;100983.16;7399272;19;1808;-39
2023/10/29 11:06:41;;;;;;;;;;;;;;;22.99;53.00;100970.13;7399726;19;1817;-39
2023/10/29 11:09:12;;;;;;;;;;;;;;;22.97;53.15;100983.75;7400402;19;1811;-39
2023/10/29 11:11:43;;;;;;;;;;;;;;;22.89;53.33;100972.91;7401771;19;1848;-39
2023/10/29 11:14:12;;;;;;;;;;;;;;;22.82;53.23;100980.78;7398297;19;1858;-39
2023/10/29 11:16:53;;;;;;;;;;;;;;;22.79;53.33;100980.25;7401136;19;1896;-39
2023/10/29 11:19:35;;;;;;;;;;;;;;;22.82;53.45;100974.56;7399884;19;1530;-39
2023/10/29 11:22:19;;;;;;;;;;;;;;;22.82;53.29;100970.00;7399974;19;1476;-39
2023/10/29 11:25:08;;;;;;;;;;;;;;;22.79;53.50;100973.00;7399233;19;1799;-39
2023/10/29 11:27:37;;;;;;;;;;;;;;;22.86;53.39;100964.28;7399051;19;1870;-38
2023/10/29 11:30:16;;;;;;;;;;;;;;;22.89;53.38;100966.69;7399191;19;1765;-39
2023/10/29 11:32:45;;;;;;;;;;;;;;;22.84;53.29;100968.00;7398785;19;1851;-39
2023/10/29 11:35:20;;;;;;;;;;;;;;;22.87;53.27;100969.53;7399426;19;1804;-39
2023/10/29 11:37:52;;;;;;;;;;;;;;;22.89;53.39;100964.81;7399210;19;1746;-39
2023/10/29 11:40:35;;;;;;;;;;;;;;;22.90;53.29;100980.03;7400767;19;1025;-39
2023/10/29 11:43:14;;;;;;;;;;;;;;;22.87;53.44;100966.84;7397187;19;1801;-39
2023/10/29 11:45:42;;;;;;;;;;;;;;;22.86;53.26;100959.75;7398289;19;1835;-39
2023/10/29 11:48:15;;;;;;;;;;;;;;;22.87;53.28;100961.44;7397464;19;1809;-39
2023/10/29 11:50:43;;;;;;;;;;;;;;;22.84;53.36;100975.25;7398159;19;1808;-38
2023/10/29 11:53:27;;;;;;;;;;;;;;;22.89;53.46;100964.00;7398597;19;1850;-39
2023/10/29 11:55:57;;;;;;;;;;;;;;;22.86;53.41;100980.47;7398874;19;1828;-39
2023/10/29 11:58:26;;;;;;;;;;;;;;;22.80;53.65;100965.75;7399107;19;1733;-39
2023/10/29 12:00:54;;;;;;;;;;;;;;;22.81;53.67;100964.75;7397903;19;1738;-39
2023/10/29 12:03:23;;;;;;;;;;;;;;;22.79;53.53;100981.09;7398420;19;1962;-38
2023/10/29 12:05:51;;;;;;;;;;;;;;;22.77;53.79;100990.34;7393039;19;1710;-39
2023/10/29 12:08:20;;;;;;;;;;;;;;;22.74;53.77;100966.38;7398667;19;1762;-39
2023/10/29 12:10:51;;;;;;;;;;;;;;;22.71;53.86;100977.50;7399201;19;1687;-39
2023/10/29 12:13:20;;;;;;;;;;;;;;;22.68;53.84;100967.88;7395409;19;1840;-39
2023/10/29 12:15:50;;;;;;;;;;;;;;;22.68;54.06;100980.47;7398897;19;958;-39
2023/10/29 12:18:22;;;;;;;;;;;;;;;22.67;53.73;100966.16;7398482;19;1808;-39
2023/10/29 12:20:51;;;;;;;;;;;;;;;22.61;54.18;100959.53;7398022;19;1891;-39
2023/10/29 12:23:19;;;;;;;;;;;;;;;22.62;54.20;100980.13;7397621;19;1864;-39
2023/10/29 12:25:47;;;;;;;;;;;;;;;22.56;54.36;100969.09;7397132;19;1810;-39
2023/10/29 12:28:18;;;;;;;;;;;;;;;22.53;54.23;100969.41;7398087;19;1393;-39
2023/10/29 12:30:49;;;;;;;;;;;;;;;22.54;54.43;100965.69;7391349;19;1467;-39
2023/10/29 12:33:21;;;;;;;;;;;;;;;22.53;54.51;100972.94;7395548;19;1892;-39
2023/10/29 12:35:50;;;;;;;;;;;;;;;22.51;54.54;100966.03;7393195;19;1678;-38
2023/10/29 12:38:19;;;;;;;;;;;;;;;22.50;54.59;100970.56;7392748;19;1762;-38
2023/10/29 12:41:02;;;;;;;;;;;;;;;22.50;54.44;100965.19;7397118;19;1066;-38
2023/10/29 12:43:44;;;;;;;;;;;;;;;22.48;54.66;100972.53;7395947;19;1924;-38
2023/10/29 12:46:12;;;;;;;;;;;;;;;22.46;54.62;100969.16;7397212;19;1836;-38
2023/10/29 12:48:56;;;;;;;;;;;;;;;22.49;54.72;100968.88;7397496;19;1325;-38
2023/10/29 12:51:24;;;;;;;;;;;;;;;22.47;54.61;100953.84;7397379;19;1399;-38
2023/10/29 12:53:53;;;;;;;;;;;;;;;22.50;54.40;100958.91;7396732;19;1855;-39
2023/10/29 12:56:22;;;;;;;;;;;;;;;22.50;54.45;100964.31;7395887;19;1856;-38
2023/10/29 12:58:52;;;;;;;;;;;;;;;22.51;54.64;100964.16;7395480;19;1588;-38
2023/10/29 13:01:21;;;;;;;;;;;;;;;22.50;54.42;100954.41;7394657;19;1840;-38